Time;durP1;ratioP1;P1;durP2;ratioP2;P2;SDS_P1;SDS_P2;PMS_P1;PMS_P2;Temp;Humidity;BMP_temperature;BMP_pressure;BME280_temperature;BME280_humidity;BME280_pressure;Samples;Min_cycle;Max_cycle;Signal;HPM_P1;HPM_P2
2023/10/19 00:00:44;;;;;;;12.52;8.02;;;;;;;23.49;38.60;99202.09;4469630;32;34469;-64
2023/10/19 00:03:12;;;;;;;11.43;7.50;;;;;;;23.50;38.67;99187.41;4467319;32;34049;-64
2023/10/19 00:05:41;;;;;;;13.38;8.02;;;;;;;23.49;38.71;99183.03;4455830;32;33991;-64
2023/10/19 00:08:19;;;;;;;12.35;8.25;;;;;;;23.49;38.79;99178.41;4469841;32;33947;-64
2023/10/19 00:11:10;;;;;;;14.57;8.00;;;;;;;23.50;38.88;99180.09;4469572;32;34005;-64
2023/10/19 00:13:38;;;;;;;12.32;8.35;;;;;;;23.49;38.83;99172.16;4469254;32;33906;-65
2023/10/19 00:19:06;;;;;;;11.30;7.80;;;;;;;23.50;38.93;99171.06;4442939;32;33405;-64
2023/10/19 00:21:49;;;;;;;11.93;8.05;;;;;;;23.50;38.87;99158.31;4469556;32;34325;-64
2023/10/19 00:24:18;;;;;;;11.00;7.22;;;;;;;23.49;38.91;99156.63;4473966;32;33973;-64
2023/10/19 00:26:48;;;;;;;15.02;7.45;;;;;;;23.50;38.91;99154.75;4485078;32;33553;-65
2023/10/19 00:29:30;;;;;;;13.57;8.13;;;;;;;23.50;38.93;99152.88;4485351;32;33956;-64
2023/10/19 00:32:02;;;;;;;11.43;7.82;;;;;;;23.51;38.96;99149.06;4484960;32;33982;-64
2023/10/19 00:34:30;;;;;;;11.10;7.45;;;;;;;23.52;38.93;99144.44;4470937;32;33278;-64
2023/10/19 00:37:07;;;;;;;10.35;7.18;;;;;;;23.50;38.94;99144.69;4484934;32;33191;-64
2023/10/19 00:39:54;;;;;;;10.55;7.07;;;;;;;23.51;38.97;99146.34;4485023;32;34784;-64
2023/10/19 00:42:30;;;;;;;11.02;7.45;;;;;;;23.51;39.08;99140.09;4485077;32;34939;-64
2023/10/19 00:45:05;;;;;;;11.20;7.28;;;;;;;23.49;39.13;99134.84;4470934;32;34946;-64
2023/10/19 00:47:42;;;;;;;11.27;7.85;;;;;;;23.50;39.14;99138.41;4484986;32;33234;-66
2023/10/19 00:50:22;;;;;;;12.65;7.32;;;;;;;23.49;39.19;99128.59;4484869;32;34868;-63
2023/10/19 00:52:50;;;;;;;;;;;;;;;23.49;39.18;99128.59;4472497;32;34035;-64
2023/10/19 00:55:20;;;;;;;17.23;7.00;;;;;;;23.57;39.17;99123.59;4484966;32;34137;-64
2023/10/19 00:57:49;;;;;;;12.73;7.70;;;;;;;23.49;39.26;99115.78;4470790;32;33711;-64
2023/10/19 01:00:31;;;;;;;11.43;7.22;;;;;;;23.48;39.31;99116.06;4470994;32;34778;-64
2023/10/19 01:03:04;;;;;;;12.02;7.80;;;;;;;23.48;39.31;99119.59;4484788;32;34550;-64
2023/10/19 01:05:35;;;;;;;10.98;7.18;;;;;;;23.48;39.39;99116.06;4471584;32;34083;-63
2023/10/19 01:11:11;;;;;;;12.00;7.57;;;;;;;23.48;39.35;99110.59;4435665;32;34305;-64
2023/10/19 01:13:44;;;;;;;11.70;7.28;;;;;;;23.46;39.40;99108.13;4462244;32;34020;-64
2023/10/19 01:16:20;;;;;;;11.38;7.10;;;;;;;23.45;39.40;99103.72;4484868;32;34022;-64
2023/10/19 01:18:53;;;;;;;9.90;6.70;;;;;;;23.46;39.38;99101.87;4471149;32;33182;-64
2023/10/19 01:21:37;;;;;;;13.18;7.15;;;;;;;23.46;39.42;99110.03;4485126;32;34410;-64
2023/10/19 01:24:09;;;;;;;9.98;6.65;;;;;;;23.45;39.50;99108.34;4468520;32;33878;-64
2023/10/19 01:26:37;;;;;;;10.20;6.87;;;;;;;23.45;39.44;99108.34;4469003;32;34284;-65
2023/10/19 01:29:16;;;;;;;10.57;6.82;;;;;;;23.45;39.48;99092.84;4469019;32;33339;-64
2023/10/19 01:31:56;;;;;;;10.93;6.50;;;;;;;23.45;39.50;99086.56;4468827;32;34701;-64
2023/10/19 01:34:26;;;;;;;13.80;7.22;;;;;;;23.45;39.47;99081.13;4468927;32;34672;-64
2023/10/19 01:36:55;;;;;;;10.13;6.68;;;;;;;23.46;39.50;99074.62;4468738;32;34148;-65
2023/10/19 01:39:23;;;;;;;11.63;7.35;;;;;;;23.44;39.63;99074.88;4469017;32;33933;-65
2023/10/19 01:41:50;;;;;;;12.40;7.40;;;;;;;23.44;39.57;99066.69;4468929;32;33950;-65
2023/10/19 01:44:20;;;;;;;14.85;7.03;;;;;;;23.43;39.54;99056.87;4467482;32;34455;-64
2023/10/19 01:46:48;;;;;;;13.25;7.60;;;;;;;23.45;39.54;99059.34;4468716;32;34907;-65
2023/10/19 01:49:25;;;;;;;10.48;6.45;;;;;;;23.45;39.57;99057.44;4471336;32;33726;-64
2023/10/19 01:51:54;;;;;;;12.02;6.90;;;;;;;23.46;39.62;99061.03;4484423;32;33859;-64
2023/10/19 01:54:25;;;;;;;10.02;6.68;;;;;;;23.44;39.65;99050.34;4470329;32;33503;-65
2023/10/19 01:56:54;;;;;;;8.95;6.57;;;;;;;23.43;39.67;99046.81;4484126;32;34316;-66
2023/10/19 01:59:23;;;;;;;10.32;6.82;;;;;;;23.44;39.70;99047.63;4484804;32;33293;-66
2023/10/19 02:01:51;;;;;;;9.77;6.60;;;;;;;23.44;39.65;99047.63;4470412;32;33592;-66
2023/10/19 02:04:21;;;;;;;10.52;6.80;;;;;;;23.43;39.65;99046.81;4484164;32;34829;-65
2023/10/19 02:06:51;;;;;;;10.70;6.78;;;;;;;23.43;39.66;99035.09;4484486;32;34138;-66
2023/10/19 02:09:32;;;;;;;12.05;7.00;;;;;;;23.42;39.64;99028.84;4484330;32;33708;-65
2023/10/19 02:12:01;;;;;;;11.00;6.70;;;;;;;23.41;39.64;99032.63;4484417;32;33834;-66
2023/10/19 02:14:29;;;;;;;11.10;6.37;;;;;;;23.41;39.60;99021.75;4484455;32;34148;-67
2023/10/19 02:17:00;;;;;;;13.13;7.45;;;;;;;23.43;39.76;99029.66;4484139;32;34136;-64
2023/10/19 02:19:28;;;;;;;9.32;6.35;;;;;;;23.41;39.77;99027.19;4470348;32;33385;-66
2023/10/19 02:21:58;;;;;;;11.65;7.32;;;;;;;23.41;39.76;99024.47;4470177;32;34852;-67
2023/10/19 02:24:26;;;;;;;10.25;6.32;;;;;;;23.41;39.75;99024.47;4484348;32;33824;-66
2023/10/19 02:26:55;;;;;;;9.15;6.47;;;;;;;23.40;39.72;99020.06;4484242;32;34285;-66
2023/10/19 02:29:23;;;;;;;9.05;6.60;;;;;;;23.40;39.71;99019.25;4484110;32;33655;-66
2023/10/19 02:31:50;;;;;;;10.40;6.20;;;;;;;23.41;39.82;99012.75;4484324;32;33872;-66
2023/10/19 02:34:18;;;;;;;9.30;6.32;;;;;;;23.40;39.81;99006.47;4484102;32;34716;-64
2023/10/19 02:36:47;;;;;;;10.45;6.18;;;;;;;23.40;39.81;99006.47;4484080;32;34030;-66
2023/10/19 02:39:17;;;;;;;10.52;6.90;;;;;;;23.40;39.78;98998.28;4484235;32;33345;-65
2023/10/19 02:41:49;;;;;;;7.97;6.20;;;;;;;23.41;39.79;98985.53;4470109;32;33968;-66
2023/10/19 02:46:58;;;;;;;9.48;6.22;;;;;;;23.40;39.89;98983.84;4484316;32;35144;-64
2023/10/19 02:49:27;;;;;;;11.85;6.45;;;;;;;23.41;39.81;98980.09;4483832;32;34530;-66
2023/10/19 02:51:55;;;;;;;9.10;6.22;;;;;;;23.40;39.88;98981.13;4469844;32;34244;-66
2023/10/19 02:54:24;;;;;;;12.02;6.85;;;;;;;23.40;39.85;98986.56;4483933;32;33750;-65
2023/10/19 02:56:54;;;;;;;11.40;6.45;;;;;;;23.38;39.85;98967.78;4469808;32;34170;-66
2023/10/19 02:59:23;;;;;;;10.07;6.30;;;;;;;23.40;39.93;98970.25;4470053;32;33676;-66
2023/10/19 03:01:52;;;;;;;10.70;5.97;;;;;;;23.39;39.83;98971.31;4469815;32;33844;-66
2023/10/19 03:04:20;;;;;;;9.10;5.70;;;;;;;23.40;39.85;98967.53;4483764;32;33697;-67
2023/10/19 03:06:49;;;;;;;11.10;6.00;;;;;;;23.40;39.68;98967.53;4482980;32;34499;-66
2023/10/19 03:09:23;;;;;;;8.95;6.18;;;;;;;23.40;39.70;98956.63;4483841;32;33389;-66
2023/10/19 03:11:59;;;;;;;9.20;5.93;;;;;;;23.39;39.83;98961.25;4483798;32;33808;-66
2023/10/19 03:14:27;;;;;;;9.65;6.43;;;;;;;23.39;39.80;98947.66;4483757;32;34732;-66
2023/10/19 03:16:55;;;;;;;12.02;6.18;;;;;;;23.38;39.86;98948.72;4469229;32;33851;-66
2023/10/19 03:19:24;;;;;;;12.05;7.40;;;;;;;23.39;39.95;98944.09;4483687;32;33227;-66
2023/10/19 03:21:55;;;;;;;8.68;5.70;;;;;;;23.38;40.00;98932.38;4483641;32;34225;-66
2023/10/19 03:24:23;;;;;;;11.05;6.05;;;;;;;23.38;39.91;98932.38;4478368;32;33575;-65
2023/10/19 03:26:51;;;;;;;8.15;5.70;;;;;;;23.38;39.96;98923.41;4466673;32;34181;-67
2023/10/19 03:29:22;;;;;;;9.25;6.62;;;;;;;23.37;40.00;98927.19;4466588;32;34286;-66
2023/10/19 03:31:50;;;;;;;10.30;5.90;;;;;;;23.37;40.00;98924.47;4467685;32;34073;-66
2023/10/19 03:34:19;;;;;;;8.43;5.68;;;;;;;23.37;39.94;98910.87;4467773;32;33695;-66
2023/10/19 03:36:46;;;;;;;9.75;5.75;;;;;;;23.36;39.91;98906.47;4467606;32;35080;-66
2023/10/19 03:39:14;;;;;;;10.65;5.68;;;;;;;23.37;39.98;98911.69;4467740;32;34032;-66
2023/10/19 03:41:42;;;;;;;8.45;5.65;;;;;;;23.37;39.94;98908.16;4467949;32;33930;-66
2023/10/19 03:44:19;;;;;;;11.60;6.47;;;;;;;23.37;39.94;98908.16;4467559;32;33584;-66
2023/10/19 03:47:11;;;;;;;9.95;5.70;;;;;;;23.37;40.06;98908.97;4466357;32;34258;-66
2023/10/19 03:49:37;;;;;;;16.45;6.25;;;;;;;23.36;40.00;98910.03;4471593;32;33415;-66
2023/10/19 03:54:41;;;;;;;12.48;5.82;;;;;;;23.36;40.09;98898.31;4483029;32;33994;-66
2023/10/19 03:57:22;;;;;;;10.88;5.87;;;;;;;23.36;40.12;98907.31;4483351;32;34060;-66
2023/10/19 03:59:56;;;;;;;8.10;5.47;;;;;;;23.35;40.16;98896.66;4469932;32;33784;-65
2023/10/19 04:02:29;;;;;;;10.40;5.50;;;;;;;23.36;40.03;98892.88;4482869;32;34602;-66
2023/10/19 04:04:57;;;;;;;10.73;6.45;;;;;;;23.36;40.12;98887.41;4469506;32;34888;-66
2023/10/19 04:07:25;;;;;;;8.50;5.30;;;;;;;23.36;39.95;98887.41;4482772;32;34985;-66
2023/10/19 04:12:41;;;;;;;8.75;5.50;;;;;;;23.34;39.73;98873.25;4469888;32;34720;-67
2023/10/19 04:15:12;;;;;;;8.13;5.55;;;;;;;23.34;39.84;98868.62;4467868;32;34005;-67
2023/10/19 04:17:42;;;;;;;9.02;5.65;;;;;;;23.34;39.90;98862.34;4482569;32;34417;-66
2023/10/19 04:20:28;;;;;;;9.45;6.25;;;;;;;23.33;39.90;98852.56;4485106;32;33406;-65
2023/10/19 04:23:06;;;;;;;9.35;6.35;;;;;;;23.32;39.90;98859.88;4485143;32;33688;-65
2023/10/19 04:25:33;;;;;;;10.07;6.18;;;;;;;23.32;39.92;98850.91;4472135;32;34757;-66
2023/10/19 04:28:01;;;;;;;10.07;5.85;;;;;;;23.30;39.97;98839.44;4485044;32;34352;-64
2023/10/19 04:30:29;;;;;;;9.05;6.20;;;;;;;23.29;40.03;98832.34;4472485;31;33548;-63
2023/10/19 04:32:57;;;;;;;15.07;6.32;;;;;;;23.28;40.03;98836.97;4490821;31;33765;-64
2023/10/19 04:35:30;;;;;;;9.68;5.90;;;;;;;23.29;40.02;98840.50;4487919;31;33494;-65
2023/10/19 04:37:57;;;;;;;9.38;6.75;;;;;;;23.29;40.07;98826.91;4484002;31;34117;-64
2023/10/19 04:40:26;;;;;;;10.90;6.20;;;;;;;23.28;40.13;98836.97;4478714;31;36028;-65
2023/10/19 04:42:54;;;;;;;9.13;5.85;;;;;;;23.29;40.11;98818.72;4492237;31;33624;-65
2023/10/19 04:45:22;;;;;;;8.95;5.50;;;;;;;23.29;40.14;98821.44;4491458;31;33585;-65
2023/10/19 04:47:54;;;;;;;9.45;6.00;;;;;;;23.28;40.12;98819.81;4484934;32;35033;-64
2023/10/19 04:50:22;;;;;;;16.15;6.97;;;;;;;23.29;40.19;98824.19;4484713;32;33818;-67
2023/10/19 04:52:50;;;;;;;10.32;5.57;;;;;;;23.34;40.12;98821.53;4470778;32;34347;-79
2023/10/19 04:55:18;;;;;;;14.57;7.37;;;;;;;23.33;40.11;98819.87;4484841;32;33988;-78
2023/10/19 04:57:46;;;;;;;16.08;6.40;;;;;;;23.32;40.20;98815.53;4484795;32;34737;-69
2023/10/19 05:00:15;;;;;;;12.40;6.03;;;;;;;23.30;40.26;98820.37;4484809;32;34565;-68
2023/10/19 05:02:42;;;;;;;9.88;6.62;;;;;;;23.30;40.30;98833.97;4485086;32;34867;-77
2023/10/19 05:05:10;;;;;;;12.80;6.60;;;;;;;23.30;40.30;98814.94;4484626;32;34766;-79
2023/10/19 05:07:39;;;;;;;12.50;6.20;;;;;;;23.29;40.35;98813.28;4483684;32;34883;-75
2023/10/19 05:10:07;;;;;;;10.02;5.75;;;;;;;23.27;40.40;98809.97;4484256;32;33742;-80
2023/10/19 05:12:34;;;;;;;14.00;6.10;;;;;;;23.27;40.40;98802.66;4484229;32;34413;-71
2023/10/19 05:15:02;;;;;;;14.25;6.28;;;;;;;23.28;40.41;98814.38;4484563;32;34487;-76
2023/10/19 05:17:30;;;;;;;10.98;6.40;;;;;;;23.26;40.51;98809.16;4480777;32;34423;-64
2023/10/19 05:19:58;;;;;;;11.30;6.12;;;;;;;23.27;40.43;98812.69;4476905;32;33581;-80
2023/10/19 05:22:29;;;;;;;17.33;7.37;;;;;;;23.26;40.45;98825.47;4480050;32;33830;-78
2023/10/19 05:24:57;;;;;;;10.98;6.45;;;;;;;23.26;40.46;98813.78;4475511;32;33443;-72
2023/10/19 05:27:25;;;;;;;9.43;5.85;;;;;;;23.25;40.48;98823.84;4468913;32;34555;-68
2023/10/19 05:29:52;;;;;;;9.82;6.03;;;;;;;23.25;40.43;98810.22;4468451;32;33383;-66
2023/10/19 05:32:20;;;;;;;10.02;5.68;;;;;;;23.25;40.44;98818.41;4469227;32;34736;-68
2023/10/19 05:34:48;;;;;;;11.52;5.75;;;;;;;23.24;40.47;98807.78;4468682;32;34150;-64
2023/10/19 05:37:17;;;;;;;9.10;5.97;;;;;;;23.24;40.44;98814.03;4468961;32;34959;-75
2023/10/19 05:39:45;;;;;;;9.60;6.30;;;;;;;23.23;40.48;98811.56;4468944;32;34240;-79
2023/10/19 05:42:12;;;;;;;8.77;5.93;;;;;;;23.23;40.46;98817.00;4466583;32;34030;-81
2023/10/19 05:44:40;;;;;;;13.55;6.43;;;;;;;23.22;40.48;98818.06;4467965;32;34051;-73
2023/10/19 05:47:07;;;;;;;12.32;6.20;;;;;;;23.22;40.48;98810.72;4468620;32;33749;-76
2023/10/19 05:49:35;;;;;;;11.12;6.10;;;;;;;23.22;40.51;98809.91;4472877;32;34227;-69
2023/10/19 05:52:03;;;;;;;10.38;6.62;;;;;;;23.21;40.47;98800.91;4484544;32;33957;-79
2023/10/19 05:54:30;;;;;;;9.63;5.93;;;;;;;23.21;40.45;98794.66;4470218;32;32897;-68
2023/10/19 05:56:58;;;;;;;9.65;5.78;;;;;;;23.20;40.42;98799.28;4484522;32;34755;-73
2023/10/19 05:59:29;;;;;;;15.50;6.20;;;;;;;23.19;40.49;98813.97;4484615;32;33491;-74
2023/10/19 06:01:56;;;;;;;12.23;6.45;;;;;;;23.20;40.47;98806.63;4484194;32;34034;-79
2023/10/19 06:04:24;;;;;;;10.10;6.22;;;;;;;23.19;40.51;98797.63;4484208;32;35405;-79
2023/10/19 06:06:52;;;;;;;9.02;5.93;;;;;;;23.20;40.49;98812.06;4484303;32;33976;-65
2023/10/19 06:09:19;;;;;;;9.20;5.97;;;;;;;23.19;40.47;98813.13;4484419;32;33467;-76
2023/10/19 06:11:49;;;;;;;10.18;6.03;;;;;;;23.17;40.50;98808.78;4444448;32;33914;-76
2023/10/19 06:14:17;;;;;;;8.13;5.70;;;;;;;23.19;40.48;98804.97;4469485;32;33906;-75
2023/10/19 06:16:45;;;;;;;9.60;5.45;;;;;;;23.17;40.42;98800.59;4469988;32;33723;-79
2023/10/19 06:19:12;;;;;;;10.95;6.18;;;;;;;23.17;40.46;98795.16;4484314;32;34267;-77
2023/10/19 06:21:40;;;;;;;8.82;5.50;;;;;;;23.16;40.46;98800.84;4484382;32;34359;-75
2023/10/19 06:24:07;;;;;;;9.15;5.62;;;;;;;23.17;40.46;98802.47;4484135;32;33464;-83
2023/10/19 06:26:36;;;;;;;9.02;6.07;;;;;;;23.15;40.41;98786.41;4484228;32;34985;-78
2023/10/19 06:29:04;;;;;;;12.55;6.40;;;;;;;23.16;40.38;98792.69;4484517;32;33759;-81
2023/10/19 06:31:32;;;;;;;10.02;6.40;;;;;;;23.15;40.37;98786.41;4484096;32;34679;-64
2023/10/19 06:34:00;;;;;;;9.38;5.87;;;;;;;23.16;40.36;98788.06;4484284;32;34786;-66
2023/10/19 06:36:29;;;;;;;9.55;5.82;;;;;;;23.14;40.34;98770.34;4484167;32;34161;-74
2023/10/19 06:38:56;;;;;;;9.27;5.57;;;;;;;23.15;40.27;98785.59;4484112;32;33491;-82
2023/10/19 06:41:24;;;;;;;9.77;5.65;;;;;;;23.16;40.27;98792.69;4483405;32;33803;-82
2023/10/19 06:43:51;;;;;;;10.88;5.87;;;;;;;23.16;40.26;98779.06;4483726;32;33972;-79
2023/10/19 06:46:21;;;;;;;9.45;6.05;;;;;;;23.16;40.26;98776.34;4484229;32;35542;-82
2023/10/19 06:48:50;;;;;;;10.70;6.43;;;;;;;23.17;40.35;98775.28;4484385;32;33565;-77
2023/10/19 06:51:18;;;;;;;9.20;5.27;;;;;;;23.19;40.33;98775.03;4483938;32;33930;-82
2023/10/19 06:53:46;;;;;;;10.27;5.93;;;;;;;23.19;40.32;98783.19;4483922;32;33971;-80
2023/10/19 06:56:15;;;;;;;9.23;5.75;;;;;;;23.20;40.31;98773.97;4483902;32;34267;-82
2023/10/19 06:58:43;;;;;;;8.60;5.55;;;;;;;23.20;40.25;98772.06;4484191;32;33372;-81
2023/10/19 07:01:12;;;;;;;8.43;5.57;;;;;;;23.21;40.21;98775.59;4484156;32;33861;-83
2023/10/19 07:03:40;;;;;;;10.57;6.20;;;;;;;23.22;40.20;98777.25;4469581;32;34016;-81
2023/10/19 07:06:13;;;;;;;8.57;5.70;;;;;;;23.24;40.17;98780.56;4470028;32;34150;-81
2023/10/19 07:08:42;;;;;;;9.30;5.78;;;;;;;23.23;40.18;98771.56;4483969;32;33571;-68
2023/10/19 07:11:09;;;;;;;7.97;5.15;;;;;;;23.24;40.21;98770.50;4483835;32;33908;-81
2023/10/19 07:13:37;;;;;;;7.87;5.40;;;;;;;23.24;40.28;98765.03;4483571;32;34007;-81
2023/10/19 07:16:05;;;;;;;10.02;5.40;;;;;;;23.24;40.27;98756.06;4483796;32;34168;-81
2023/10/19 07:18:33;;;;;;;7.97;5.45;;;;;;;23.25;40.28;98746.81;4469642;32;33497;-76
2023/10/19 07:21:03;;;;;;;10.38;5.80;;;;;;;23.26;40.29;98759.34;4483811;32;33961;-81
2023/10/19 07:23:31;;;;;;;9.05;6.15;;;;;;;23.26;40.32;98757.44;4483539;32;33896;-81
2023/10/19 07:26:02;;;;;;;9.73;6.07;;;;;;;23.27;40.30;98758.25;4454144;32;33013;-82
2023/10/19 07:28:31;;;;;;;7.15;5.35;;;;;;;23.28;40.26;98749.03;4468098;32;34298;-81
2023/10/19 07:31:03;;;;;;;8.47;5.13;;;;;;;23.28;40.33;98749.03;4467910;32;34627;-81
2023/10/19 07:33:30;;;;;;;8.45;5.70;;;;;;;23.29;40.33;98747.97;4467664;32;34061;-81
2023/10/19 07:36:06;;;;;;;9.25;5.97;;;;;;;23.28;40.34;98744.41;4467670;32;34035;-78
2023/10/19 07:38:34;;;;;;;10.50;5.70;;;;;;;23.30;40.36;98742.25;4467767;32;33024;-81
2023/10/19 07:41:02;;;;;;;10.65;5.78;;;;;;;23.31;40.35;98724.03;4467610;32;33796;-81
2023/10/19 07:43:30;;;;;;;9.15;5.72;;;;;;;23.32;40.37;98742.84;4467728;32;33474;-63
2023/10/19 07:45:57;;;;;;;9.25;5.68;;;;;;;23.33;40.37;98724.62;4467949;32;34152;-69
2023/10/19 07:48:26;;;;;;;8.75;5.50;;;;;;;23.33;40.39;98732.78;4467299;32;34404;-69
2023/10/19 07:50:53;;;;;;;11.07;5.57;;;;;;;23.33;40.38;98711.81;4467632;32;33461;-63
2023/10/19 07:53:21;;;;;;;8.55;5.65;;;;;;;23.34;40.41;98724.34;4468379;32;33957;-67
2023/10/19 07:55:49;;;;;;;8.82;5.53;;;;;;;23.34;40.40;98713.47;4469364;32;34886;-64
2023/10/19 07:58:17;;;;;;;8.95;5.85;;;;;;;23.36;40.39;98716.78;4469696;32;33568;-67
2023/10/19 08:00:46;;;;;;;9.73;6.40;;;;;;;23.37;40.41;98709.44;4469673;32;33807;-64
2023/10/19 08:03:16;;;;;;;;;;;;;;;23.37;40.41;98704.81;4469750;32;33984;-64
2023/10/19 08:05:43;;;;;;;9.93;6.28;;;;;;;23.47;40.36;98703.28;4469692;32;34398;-70
2023/10/19 08:08:12;;;;;;;11.82;7.32;;;;;;;23.39;40.48;98699.91;4469599;32;34288;-81
2023/10/19 08:10:40;;;;;;;11.38;6.82;;;;;;;23.37;40.54;98702.09;4469549;32;33772;-82
2023/10/19 08:13:08;;;;;;;10.85;6.37;;;;;;;23.37;40.64;98709.44;4455357;32;32702;-81
2023/10/19 08:15:36;;;;;;;12.02;6.37;;;;;;;23.37;40.42;98698.53;4469504;32;34207;-81
2023/10/19 08:18:05;;;;;;;8.70;5.55;;;;;;;23.37;40.55;98704.00;4469493;32;33296;-81
2023/10/19 08:20:36;;;;;;;9.93;6.10;;;;;;;23.36;40.52;98707.75;4469458;32;33816;-82
2023/10/19 08:23:05;;;;;;;10.02;6.03;;;;;;;23.37;40.51;98707.53;4469313;32;33906;-82
2023/10/19 08:25:33;;;;;;;11.98;6.15;;;;;;;23.37;40.39;98704.00;4469446;32;34072;-64
2023/10/19 08:28:22;;;;;;;9.43;5.62;;;;;;;23.35;40.55;98701.50;4469296;32;34548;-64
2023/10/19 08:31:02;;;;;;;10.13;5.75;;;;;;;23.35;40.48;98696.06;4469343;32;34138;-64
2023/10/19 08:33:30;;;;;;;9.60;5.35;;;;;;;23.34;40.36;98686.25;4469357;32;34734;-64
2023/10/19 08:35:59;;;;;;;11.00;5.55;;;;;;;23.34;40.38;98688.16;4469398;32;34185;-65
2023/10/19 08:38:28;;;;;;;9.25;6.20;;;;;;;23.32;40.41;98682.97;4468134;32;34436;-64
2023/10/19 08:40:56;;;;;;;9.60;6.50;;;;;;;23.32;40.48;98680.25;4467953;32;34039;-64
2023/10/19 08:43:24;;;;;;;10.07;6.30;;;;;;;23.32;40.53;98674.00;4468243;32;33956;-64
2023/10/19 08:45:51;;;;;;;8.63;5.28;;;;;;;23.32;40.51;98674.00;4469362;32;33980;-64
2023/10/19 08:48:19;;;;;;;9.40;5.68;;;;;;;23.29;40.41;98669.84;4455270;32;33780;-63
2023/10/19 08:50:48;;;;;;;9.13;5.35;;;;;;;23.29;40.51;98647.25;4481521;32;34017;-64
2023/10/19 08:53:19;;;;;;;8.33;5.77;;;;;;;23.29;40.48;98652.72;4484809;32;33817;-64
2023/10/19 08:55:48;;;;;;;8.98;6.07;;;;;;;23.27;40.47;98644.81;4470971;32;33964;-64
2023/10/19 08:58:17;;;;;;;;;;;;;;;23.27;40.49;98643.97;4471391;32;33544;-65
2023/10/19 09:00:53;;;;;;;9.95;5.82;;;;;;;23.36;40.33;98639.72;4485013;32;34285;-64
2023/10/19 09:03:25;;;;;;;9.57;6.07;;;;;;;23.28;40.41;98643.72;4484871;32;34845;-67
2023/10/19 09:05:56;;;;;;;7.45;5.20;;;;;;;23.25;40.51;98655.09;4483980;32;34045;-65
2023/10/19 09:08:24;;;;;;;8.37;5.13;;;;;;;23.24;40.46;98645.31;4484753;32;33163;-64
2023/10/19 09:10:53;;;;;;;10.43;5.87;;;;;;;23.25;40.43;98640.69;4484848;32;33888;-64
2023/10/19 09:13:22;;;;;;;;;;;;;;;23.23;40.46;98643.66;4485216;32;33709;-64
2023/10/19 09:15:55;;;;;;;9.30;5.60;;;;;;;23.32;40.32;98614.09;4485020;32;33935;-64
2023/10/19 09:18:27;;;;;;;10.25;5.50;;;;;;;23.26;40.40;98618.62;4484684;32;33788;-64
2023/10/19 09:21:01;;;;;;;8.02;5.55;;;;;;;23.22;40.49;98620.22;4484961;32;33526;-64
2023/10/19 09:23:30;;;;;;;10.25;5.10;;;;;;;23.21;40.47;98618.59;4466431;32;33770;-63
2023/10/19 09:26:03;;;;;;;7.57;4.50;;;;;;;23.21;40.47;98625.94;4492618;31;33960;-63
2023/10/19 09:28:33;;;;;;;9.02;5.20;;;;;;;23.20;40.47;98621.56;4472245;32;34304;-63
2023/10/19 09:31:02;;;;;;;8.40;5.25;;;;;;;23.21;40.53;98612.31;4470583;32;34027;-64
2023/10/19 09:33:31;;;;;;;9.02;4.90;;;;;;;23.19;40.51;98619.94;4470780;32;33781;-62
2023/10/19 09:36:00;;;;;;;9.32;5.68;;;;;;;23.19;40.51;98625.38;4470867;32;34245;-64
2023/10/19 09:38:28;;;;;;;8.23;5.50;;;;;;;23.20;40.45;98616.94;4484569;32;33300;-63
2023/10/19 09:40:59;;;;;;;9.18;5.68;;;;;;;23.20;40.47;98610.69;4484742;32;34791;-63
2023/10/19 09:43:34;;;;;;;7.78;5.43;;;;;;;23.19;40.48;98614.47;4468766;32;34100;-63
2023/10/19 09:46:06;;;;;;;7.90;5.25;;;;;;;23.19;40.50;98592.72;4442186;32;34137;-63
2023/10/19 09:48:41;;;;;;;7.60;5.03;;;;;;;23.18;40.46;98605.50;4442127;32;33402;-63
2023/10/19 09:51:09;;;;;;;8.15;5.47;;;;;;;23.16;40.43;98585.88;4450523;32;34706;-63
2023/10/19 09:53:48;;;;;;;8.95;5.60;;;;;;;23.18;40.43;98591.91;4430208;32;33354;-64
2023/10/19 09:56:21;;;;;;;8.45;4.87;;;;;;;23.16;40.43;98585.88;4442467;32;34803;-64
2023/10/19 09:58:53;;;;;;;9.82;5.40;;;;;;;23.16;40.43;98600.28;4468591;32;33561;-63
2023/10/19 10:01:24;;;;;;;7.03;4.60;;;;;;;23.16;40.40;98591.31;4468810;32;33846;-64
2023/10/19 10:03:52;;;;;;;8.52;5.10;;;;;;;23.15;40.41;98593.22;4455014;32;34973;-63
2023/10/19 10:06:30;;;;;;;7.70;4.97;;;;;;;23.14;40.43;98575.25;4454711;32;33922;-64
2023/10/19 10:09:03;;;;;;;7.97;4.55;;;;;;;23.16;40.39;98573.09;4441773;32;32579;-63
2023/10/19 10:11:30;;;;;;;8.55;4.75;;;;;;;23.14;40.44;98555.38;4468498;32;33813;-63
2023/10/19 10:13:58;;;;;;;6.93;4.65;;;;;;;23.14;40.38;98544.50;4468750;32;34007;-63
2023/10/19 10:16:27;;;;;;;7.10;4.95;;;;;;;23.13;40.40;98546.41;4454514;32;34760;-63
2023/10/19 10:19:01;;;;;;;8.40;5.22;;;;;;;23.13;40.42;98531.97;4454164;32;32599;-63
2023/10/19 10:21:29;;;;;;;8.25;5.00;;;;;;;23.12;40.43;98527.59;4468351;32;33377;-62
2023/10/19 10:24:03;;;;;;;6.53;4.32;;;;;;;23.13;40.39;98519.19;4468666;32;34821;-64
2023/10/19 10:26:37;;;;;;;6.50;5.07;;;;;;;23.13;40.41;98521.91;4454641;32;33897;-63
2023/10/19 10:29:24;;;;;;;7.32;4.87;;;;;;;23.12;40.41;98520.25;4468613;32;34140;-63
2023/10/19 10:31:51;;;;;;;6.65;4.78;;;;;;;23.13;40.38;98521.91;4455501;32;34615;-63
2023/10/19 10:34:37;;;;;;;6.75;4.12;;;;;;;23.11;40.41;98526.78;4468536;32;33887;-63
2023/10/19 10:37:07;;;;;;;7.30;4.82;;;;;;;23.13;40.38;98508.31;4468553;32;33856;-63
2023/10/19 10:39:39;;;;;;;7.40;4.65;;;;;;;23.09;40.40;98499.00;4468550;32;33468;-64
2023/10/19 10:42:08;;;;;;;7.12;4.37;;;;;;;23.11;40.41;98521.31;4468334;32;33419;-63
2023/10/19 10:44:45;;;;;;;7.37;4.45;;;;;;;23.09;40.40;98501.72;4454453;32;33914;-64
2023/10/19 10:47:18;;;;;;;11.90;9.30;;;;;;;23.10;40.41;98516.97;4468274;32;33773;-65
2023/10/19 10:49:47;;;;;;;13.48;9.85;;;;;;;23.09;39.78;98522.69;4459710;32;33696;-64
2023/10/19 10:52:32;;;;;;;13.93;10.50;;;;;;;23.07;39.21;98492.16;4484011;32;33921;-66
2023/10/19 10:55:15;;;;;;;14.40;12.00;;;;;;;23.05;38.85;98508.75;4457531;32;33597;-64
2023/10/19 10:57:44;;;;;;;18.23;13.48;;;;;;;23.01;38.66;98502.19;4483722;32;34406;-64
2023/10/19 11:00:17;;;;;;;17.27;13.77;;;;;;;22.95;38.71;98503.19;4470010;32;33621;-69
2023/10/19 11:02:59;;;;;;;16.27;12.90;;;;;;;22.93;38.69;98499.91;4484229;32;33981;-72
2023/10/19 11:05:27;;;;;;;17.15;13.50;;;;;;;22.91;38.64;98493.91;4483849;32;34798;-64
2023/10/19 11:08:15;;;;;;;16.48;14.10;;;;;;;22.88;38.68;98484.31;4456935;32;32942;-66
2023/10/19 11:10:46;;;;;;;17.33;13.02;;;;;;;22.87;38.75;98490.00;4457275;32;34556;-65
2023/10/19 11:13:15;;;;;;;16.52;13.62;;;;;;;22.83;38.78;98489.69;4470055;32;34708;-63
2023/10/19 11:15:53;;;;;;;17.05;14.50;;;;;;;22.83;38.78;98486.16;4483598;32;33563;-63
2023/10/19 11:18:45;;;;;;;17.40;15.18;;;;;;;22.80;38.85;98473.06;4466875;32;33708;-64
2023/10/19 11:21:14;;;;;;;17.52;14.73;;;;;;;22.79;38.94;98474.13;4454797;32;33639;-63
2023/10/19 11:23:48;;;;;;;19.42;14.43;;;;;;;22.76;39.02;98477.37;4464550;32;33947;-70
2023/10/19 11:26:17;;;;;;;19.02;14.15;;;;;;;22.75;39.01;98471.09;4483456;32;34910;-72
2023/10/19 11:28:51;;;;;;;16.92;13.90;;;;;;;22.74;39.03;98474.09;4457549;32;33827;-73
2023/10/19 11:31:22;;;;;;;18.25;14.55;;;;;;;22.72;39.03;98470.81;4485524;32;33223;-72
2023/10/19 11:33:51;;;;;;;17.37;14.70;;;;;;;22.69;39.04;98457.72;4485636;32;33641;-73
2023/10/19 11:36:20;;;;;;;15.40;13.68;;;;;;;22.67;39.09;98449.81;4484805;32;33620;-74
2023/10/19 11:38:51;;;;;;;17.33;13.73;;;;;;;22.66;39.13;98451.72;4485221;32;34795;-67
2023/10/19 11:41:19;;;;;;;15.90;13.48;;;;;;;22.64;39.19;98451.13;4471264;32;33259;-64
2023/10/19 11:43:47;;;;;;;16.27;13.73;;;;;;;22.64;39.26;98448.41;4471321;32;33860;-74
2023/10/19 11:46:17;;;;;;;18.80;14.63;;;;;;;22.65;39.27;98438.34;4471408;32;34726;-72
2023/10/19 11:48:46;;;;;;;16.87;13.90;;;;;;;22.63;39.31;98435.91;4471382;32;33669;-70
2023/10/19 11:51:15;;;;;;;20.02;14.77;;;;;;;22.63;39.28;98437.81;4485233;32;33617;-71
2023/10/19 11:53:42;;;;;;;20.73;15.02;;;;;;;22.62;39.29;98444.31;4458416;32;33960;-73
2023/10/19 11:56:12;;;;;;;18.20;14.30;;;;;;;22.60;39.35;98441.84;4471241;32;34956;-73
2023/10/19 11:58:41;;;;;;;;;;;;;;;22.58;39.42;98435.84;4471652;32;34845;-72